sensor_id;sensor_type;location;lat;lon;timestamp;P1;durP1;ratioP1;P2;durP2;ratioP2
76473;SDS011;65307;50.902;4.278;2022-11-20T00:01:08;6.10;;;4.57;;
76473;SDS011;65307;50.902;4.278;2022-11-20T00:03:39;6.72;;;5.00;;
76473;SDS011;65307;50.902;4.278;2022-11-20T00:06:06;5.32;;;4.43;;
76473;SDS011;65307;50.902;4.278;2022-11-20T00:08:33;6.03;;;4.57;;
76473;SDS011;65307;50.902;4.278;2022-11-20T00:11:05;5.78;;;4.57;;
76473;SDS011;65307;50.902;4.278;2022-11-20T00:13:39;6.22;;;5.05;;
76473;SDS011;65307;50.902;4.278;2022-11-20T00:16:05;6.03;;;4.57;;
76473;SDS011;65307;50.902;4.278;2022-11-20T00:18:32;5.80;;;4.50;;
76473;SDS011;65307;50.902;4.278;2022-11-20T00:21:05;6.43;;;4.47;;
76473;SDS011;65307;50.902;4.278;2022-11-20T00:23:34;6.53;;;4.65;;
76473;SDS011;65307;50.902;4.278;2022-11-20T00:26:03;6.22;;;4.50;;
76473;SDS011;65307;50.902;4.278;2022-11-20T00:28:30;5.88;;;4.50;;
76473;SDS011;65307;50.902;4.278;2022-11-20T00:31:03;7.15;;;4.93;;
76473;SDS011;65307;50.902;4.278;2022-11-20T00:33:33;6.43;;;4.95;;
76473;SDS011;65307;50.902;4.278;2022-11-20T00:36:03;6.38;;;4.70;;
76473;SDS011;65307;50.902;4.278;2022-11-20T00:38:33;6.65;;;4.43;;
76473;SDS011;65307;50.902;4.278;2022-11-20T00:40:59;6.47;;;4.80;;
76473;SDS011;65307;50.902;4.278;2022-11-20T00:43:26;6.22;;;4.57;;
76473;SDS011;65307;50.902;4.278;2022-11-20T00:46:35;5.80;;;4.65;;
76473;SDS011;65307;50.902;4.278;2022-11-20T00:48:42;5.63;;;4.43;;
76473;SDS011;65307;50.902;4.278;2022-11-20T00:51:09;6.10;;;4.72;;
76473;SDS011;65307;50.902;4.278;2022-11-20T00:53:36;6.13;;;4.60;;
76473;SDS011;65307;50.902;4.278;2022-11-20T00:56:03;6.85;;;4.30;;
76473;SDS011;65307;50.902;4.278;2022-11-20T00:58:32;6.40;;;4.53;;
76473;SDS011;65307;50.902;4.278;2022-11-20T01:01:00;5.40;;;4.05;;
76473;SDS011;65307;50.902;4.278;2022-11-20T01:03:40;6.03;;;4.68;;
76473;SDS011;65307;50.902;4.278;2022-11-20T01:06:11;6.18;;;4.78;;
76473;SDS011;65307;50.902;4.278;2022-11-20T01:08:42;5.90;;;4.25;;
76473;SDS011;65307;50.902;4.278;2022-11-20T01:11:13;6.60;;;4.70;;
76473;SDS011;65307;50.902;4.278;2022-11-20T01:13:43;6.13;;;4.53;;
76473;SDS011;65307;50.902;4.278;2022-11-20T01:16:12;5.13;;;4.10;;
76473;SDS011;65307;50.902;4.278;2022-11-20T01:18:40;5.45;;;4.30;;
76473;SDS011;65307;50.902;4.278;2022-11-20T01:21:09;6.03;;;4.40;;
76473;SDS011;65307;50.902;4.278;2022-11-20T01:23:37;6.28;;;4.88;;
76473;SDS011;65307;50.902;4.278;2022-11-20T01:26:05;5.65;;;4.30;;
76473;SDS011;65307;50.902;4.278;2022-11-20T01:28:33;6.50;;;4.78;;
76473;SDS011;65307;50.902;4.278;2022-11-20T01:30:59;5.20;;;4.53;;
76473;SDS011;65307;50.902;4.278;2022-11-20T01:33:25;5.72;;;4.60;;
76473;SDS011;65307;50.902;4.278;2022-11-20T01:35:51;5.43;;;4.15;;
76473;SDS011;65307;50.902;4.278;2022-11-20T01:38:17;5.60;;;4.40;;
76473;SDS011;65307;50.902;4.278;2022-11-20T01:40:43;6.60;;;4.53;;
76473;SDS011;65307;50.902;4.278;2022-11-20T01:43:17;5.97;;;4.38;;
76473;SDS011;65307;50.902;4.278;2022-11-20T01:46:03;4.53;;;3.97;;
76473;SDS011;65307;50.902;4.278;2022-11-20T01:49:02;5.38;;;3.95;;
76473;SDS011;65307;50.902;4.278;2022-11-20T01:54:36;4.78;;;3.88;;
76473;SDS011;65307;50.902;4.278;2022-11-20T01:57:24;5.72;;;4.75;;
76473;SDS011;65307;50.902;4.278;2022-11-20T01:59:54;4.65;;;3.53;;
76473;SDS011;65307;50.902;4.278;2022-11-20T02:02:24;6.93;;;4.53;;
76473;SDS011;65307;50.902;4.278;2022-11-20T02:04:51;4.40;;;3.75;;
76473;SDS011;65307;50.902;4.278;2022-11-20T02:07:20;5.63;;;4.38;;
76473;SDS011;65307;50.902;4.278;2022-11-20T02:09:47;5.15;;;4.25;;
76473;SDS011;65307;50.902;4.278;2022-11-20T02:12:12;5.82;;;4.00;;
76473;SDS011;65307;50.902;4.278;2022-11-20T02:14:58;5.65;;;4.10;;
76473;SDS011;65307;50.902;4.278;2022-11-20T02:17:24;6.05;;;4.40;;
76473;SDS011;65307;50.902;4.278;2022-11-20T02:19:50;4.95;;;4.03;;
76473;SDS011;65307;50.902;4.278;2022-11-20T02:22:18;5.93;;;4.45;;
76473;SDS011;65307;50.902;4.278;2022-11-20T02:24:52;5.43;;;4.20;;
76473;SDS011;65307;50.902;4.278;2022-11-20T02:27:17;5.15;;;4.00;;
76473;SDS011;65307;50.902;4.278;2022-11-20T02:32:21;4.50;;;3.63;;
76473;SDS011;65307;50.902;4.278;2022-11-20T02:34:57;5.80;;;3.92;;
76473;SDS011;65307;50.902;4.278;2022-11-20T02:37:25;4.95;;;3.80;;
76473;SDS011;65307;50.902;4.278;2022-11-20T02:42:21;4.70;;;3.70;;
76473;SDS011;65307;50.902;4.278;2022-11-20T02:44:47;4.00;;;3.55;;
76473;SDS011;65307;50.902;4.278;2022-11-20T02:47:13;4.90;;;3.67;;
76473;SDS011;65307;50.902;4.278;2022-11-20T02:49:38;5.45;;;4.32;;
76473;SDS011;65307;50.902;4.278;2022-11-20T02:52:04;5.05;;;3.83;;
76473;SDS011;65307;50.902;4.278;2022-11-20T02:54:29;3.90;;;3.28;;
76473;SDS011;65307;50.902;4.278;2022-11-20T02:56:55;5.03;;;3.70;;
76473;SDS011;65307;50.902;4.278;2022-11-20T02:59:21;5.18;;;4.15;;
76473;SDS011;65307;50.902;4.278;2022-11-20T03:01:46;4.60;;;4.05;;
76473;SDS011;65307;50.902;4.278;2022-11-20T03:04:12;4.38;;;3.72;;
76473;SDS011;65307;50.902;4.278;2022-11-20T03:06:37;4.60;;;3.85;;
76473;SDS011;65307;50.902;4.278;2022-11-20T03:09:03;5.20;;;4.20;;
76473;SDS011;65307;50.902;4.278;2022-11-20T03:11:29;4.63;;;3.70;;
76473;SDS011;65307;50.902;4.278;2022-11-20T03:13:54;4.78;;;3.92;;
76473;SDS011;65307;50.902;4.278;2022-11-20T03:16:20;4.80;;;3.63;;
76473;SDS011;65307;50.902;4.278;2022-11-20T03:18:47;4.78;;;3.88;;
76473;SDS011;65307;50.902;4.278;2022-11-20T03:21:14;3.95;;;3.38;;
76473;SDS011;65307;50.902;4.278;2022-11-20T03:23:40;4.93;;;3.85;;
76473;SDS011;65307;50.902;4.278;2022-11-20T03:28:48;4.32;;;3.70;;
76473;SDS011;65307;50.902;4.278;2022-11-20T03:31:16;4.07;;;3.50;;
76473;SDS011;65307;50.902;4.278;2022-11-20T03:33:43;5.22;;;3.90;;
76473;SDS011;65307;50.902;4.278;2022-11-20T03:36:10;4.55;;;3.65;;
76473;SDS011;65307;50.902;4.278;2022-11-20T03:38:38;4.55;;;3.80;;
76473;SDS011;65307;50.902;4.278;2022-11-20T03:41:14;3.97;;;3.47;;
76473;SDS011;65307;50.902;4.278;2022-11-20T03:43:48;4.07;;;3.67;;
76473;SDS011;65307;50.902;4.278;2022-11-20T03:46:18;4.15;;;3.40;;
76473;SDS011;65307;50.902;4.278;2022-11-20T03:48:43;5.13;;;3.78;;
76473;SDS011;65307;50.902;4.278;2022-11-20T03:51:22;4.40;;;3.88;;
76473;SDS011;65307;50.902;4.278;2022-11-20T03:53:49;4.38;;;3.55;;
76473;SDS011;65307;50.902;4.278;2022-11-20T03:56:17;4.95;;;3.65;;
76473;SDS011;65307;50.902;4.278;2022-11-20T03:58:44;4.55;;;3.40;;
76473;SDS011;65307;50.902;4.278;2022-11-20T04:03:38;4.57;;;3.50;;
76473;SDS011;65307;50.902;4.278;2022-11-20T04:06:08;4.72;;;3.55;;
76473;SDS011;65307;50.902;4.278;2022-11-20T04:08:35;4.45;;;3.75;;
76473;SDS011;65307;50.902;4.278;2022-11-20T04:11:17;3.90;;;3.47;;
76473;SDS011;65307;50.902;4.278;2022-11-20T04:13:48;3.63;;;3.25;;
76473;SDS011;65307;50.902;4.278;2022-11-20T04:16:16;4.05;;;3.20;;
76473;SDS011;65307;50.902;4.278;2022-11-20T04:18:43;4.53;;;3.83;;
76473;SDS011;65307;50.902;4.278;2022-11-20T04:21:09;4.18;;;3.28;;
76473;SDS011;65307;50.902;4.278;2022-11-20T04:23:35;4.80;;;3.50;;
76473;SDS011;65307;50.902;4.278;2022-11-20T04:26:05;4.68;;;3.28;;
76473;SDS011;65307;50.902;4.278;2022-11-20T04:28:35;3.97;;;3.22;;
76473;SDS011;65307;50.902;4.278;2022-11-20T04:31:02;4.47;;;3.33;;
76473;SDS011;65307;50.902;4.278;2022-11-20T04:33:33;4.78;;;3.55;;
76473;SDS011;65307;50.902;4.278;2022-11-20T04:36:01;4.10;;;3.35;;
76473;SDS011;65307;50.902;4.278;2022-11-20T04:38:30;4.35;;;3.20;;
76473;SDS011;65307;50.902;4.278;2022-11-20T04:41:00;4.28;;;3.30;;
76473;SDS011;65307;50.902;4.278;2022-11-20T04:43:27;4.53;;;3.38;;
76473;SDS011;65307;50.902;4.278;2022-11-20T04:45:54;4.18;;;3.30;;
76473;SDS011;65307;50.902;4.278;2022-11-20T04:48:21;3.80;;;3.28;;
76473;SDS011;65307;50.902;4.278;2022-11-20T04:50:47;4.20;;;3.63;;
76473;SDS011;65307;50.902;4.278;2022-11-20T04:53:13;4.63;;;3.60;;
76473;SDS011;65307;50.902;4.278;2022-11-20T04:55:39;4.88;;;3.40;;
76473;SDS011;65307;50.902;4.278;2022-11-20T04:58:05;3.78;;;3.38;;
76473;SDS011;65307;50.902;4.278;2022-11-20T05:00:30;4.45;;;3.10;;
76473;SDS011;65307;50.902;4.278;2022-11-20T05:02:56;3.67;;;3.28;;
76473;SDS011;65307;50.902;4.278;2022-11-20T05:05:22;4.57;;;3.38;;
76473;SDS011;65307;50.902;4.278;2022-11-20T05:07:47;4.50;;;3.67;;
76473;SDS011;65307;50.902;4.278;2022-11-20T05:10:13;4.32;;;3.53;;
76473;SDS011;65307;50.902;4.278;2022-11-20T05:12:39;3.92;;;3.53;;
76473;SDS011;65307;50.902;4.278;2022-11-20T05:15:04;4.43;;;3.75;;
76473;SDS011;65307;50.902;4.278;2022-11-20T05:17:30;4.30;;;3.38;;
76473;SDS011;65307;50.902;4.278;2022-11-20T05:19:56;4.20;;;3.55;;
76473;SDS011;65307;50.902;4.278;2022-11-20T05:22:21;4.70;;;3.53;;
76473;SDS011;65307;50.902;4.278;2022-11-20T05:24:47;3.70;;;3.15;;
76473;SDS011;65307;50.902;4.278;2022-11-20T05:27:12;4.00;;;3.40;;
76473;SDS011;65307;50.902;4.278;2022-11-20T05:29:38;5.05;;;3.45;;
76473;SDS011;65307;50.902;4.278;2022-11-20T05:32:03;3.72;;;3.40;;
76473;SDS011;65307;50.902;4.278;2022-11-20T05:34:31;4.03;;;3.22;;
76473;SDS011;65307;50.902;4.278;2022-11-20T05:36:56;5.00;;;3.67;;
76473;SDS011;65307;50.902;4.278;2022-11-20T05:39:22;4.80;;;3.80;;
76473;SDS011;65307;50.902;4.278;2022-11-20T05:41:47;4.65;;;3.65;;
76473;SDS011;65307;50.902;4.278;2022-11-20T05:44:33;3.33;;;3.00;;
76473;SDS011;65307;50.902;4.278;2022-11-20T05:46:58;4.80;;;3.42;;
76473;SDS011;65307;50.902;4.278;2022-11-20T05:49:24;4.60;;;3.50;;
76473;SDS011;65307;50.902;4.278;2022-11-20T05:51:49;4.47;;;3.40;;
76473;SDS011;65307;50.902;4.278;2022-11-20T05:54:15;5.13;;;3.60;;
76473;SDS011;65307;50.902;4.278;2022-11-20T05:56:41;5.20;;;3.33;;
76473;SDS011;65307;50.902;4.278;2022-11-20T05:59:06;3.55;;;3.10;;
76473;SDS011;65307;50.902;4.278;2022-11-20T06:01:32;3.85;;;3.25;;
76473;SDS011;65307;50.902;4.278;2022-11-20T06:03:58;4.25;;;3.33;;
76473;SDS011;65307;50.902;4.278;2022-11-20T06:06:23;4.45;;;3.65;;
76473;SDS011;65307;50.902;4.278;2022-11-20T06:08:50;4.70;;;3.30;;
76473;SDS011;65307;50.902;4.278;2022-11-20T06:11:16;3.38;;;2.97;;
76473;SDS011;65307;50.902;4.278;2022-11-20T06:13:42;4.43;;;3.20;;
76473;SDS011;65307;50.902;4.278;2022-11-20T06:16:09;4.22;;;3.42;;
76473;SDS011;65307;50.902;4.278;2022-11-20T06:18:35;4.18;;;3.35;;
76473;SDS011;65307;50.902;4.278;2022-11-20T06:21:12;4.57;;;3.83;;
76473;SDS011;65307;50.902;4.278;2022-11-20T06:23:42;4.00;;;3.30;;
76473;SDS011;65307;50.902;4.278;2022-11-20T06:26:09;4.00;;;3.50;;
76473;SDS011;65307;50.902;4.278;2022-11-20T06:28:37;5.07;;;3.70;;
76473;SDS011;65307;50.902;4.278;2022-11-20T06:31:03;3.50;;;2.88;;
76473;SDS011;65307;50.902;4.278;2022-11-20T06:33:30;4.25;;;3.30;;
76473;SDS011;65307;50.902;4.278;2022-11-20T06:35:59;4.00;;;3.60;;
76473;SDS011;65307;50.902;4.278;2022-11-20T06:38:26;5.15;;;3.35;;
76473;SDS011;65307;50.902;4.278;2022-11-20T06:40:52;4.78;;;3.20;;
76473;SDS011;65307;50.902;4.278;2022-11-20T06:43:18;4.55;;;3.63;;
76473;SDS011;65307;50.902;4.278;2022-11-20T06:45:44;4.43;;;3.55;;
76473;SDS011;65307;50.902;4.278;2022-11-20T06:48:09;4.72;;;3.30;;
76473;SDS011;65307;50.902;4.278;2022-11-20T06:50:38;4.47;;;3.35;;
76473;SDS011;65307;50.902;4.278;2022-11-20T06:53:04;4.82;;;3.72;;
76473;SDS011;65307;50.902;4.278;2022-11-20T06:55:30;4.65;;;3.47;;
76473;SDS011;65307;50.902;4.278;2022-11-20T06:57:56;4.55;;;3.50;;
76473;SDS011;65307;50.902;4.278;2022-11-20T07:00:22;3.40;;;3.10;;
76473;SDS011;65307;50.902;4.278;2022-11-20T07:02:48;3.85;;;3.10;;
76473;SDS011;65307;50.902;4.278;2022-11-20T07:05:14;3.55;;;2.92;;
76473;SDS011;65307;50.902;4.278;2022-11-20T07:07:40;4.18;;;3.17;;
76473;SDS011;65307;50.902;4.278;2022-11-20T07:10:06;4.88;;;3.53;;
76473;SDS011;65307;50.902;4.278;2022-11-20T07:12:32;6.78;;;3.85;;
76473;SDS011;65307;50.902;4.278;2022-11-20T07:14:57;3.95;;;3.33;;
76473;SDS011;65307;50.902;4.278;2022-11-20T07:17:23;3.70;;;3.05;;
76473;SDS011;65307;50.902;4.278;2022-11-20T07:19:48;4.32;;;3.55;;
76473;SDS011;65307;50.902;4.278;2022-11-20T07:22:14;4.55;;;3.20;;
76473;SDS011;65307;50.902;4.278;2022-11-20T07:24:39;4.53;;;3.33;;
76473;SDS011;65307;50.902;4.278;2022-11-20T07:27:05;5.15;;;3.35;;
76473;SDS011;65307;50.902;4.278;2022-11-20T07:29:30;4.60;;;3.30;;
76473;SDS011;65307;50.902;4.278;2022-11-20T07:31:56;4.25;;;3.20;;
76473;SDS011;65307;50.902;4.278;2022-11-20T07:34:22;4.25;;;3.20;;
76473;SDS011;65307;50.902;4.278;2022-11-20T07:36:48;5.95;;;3.83;;
76473;SDS011;65307;50.902;4.278;2022-11-20T07:39:13;3.78;;;3.08;;
76473;SDS011;65307;50.902;4.278;2022-11-20T07:41:39;4.65;;;3.47;;
76473;SDS011;65307;50.902;4.278;2022-11-20T07:44:04;5.13;;;3.38;;
76473;SDS011;65307;50.902;4.278;2022-11-20T07:46:30;4.18;;;3.40;;
76473;SDS011;65307;50.902;4.278;2022-11-20T07:48:56;4.38;;;3.38;;
76473;SDS011;65307;50.902;4.278;2022-11-20T07:51:21;5.53;;;3.63;;
76473;SDS011;65307;50.902;4.278;2022-11-20T07:53:47;5.18;;;3.70;;
76473;SDS011;65307;50.902;4.278;2022-11-20T07:56:15;4.93;;;3.72;;
76473;SDS011;65307;50.902;4.278;2022-11-20T07:58:40;4.45;;;3.58;;
76473;SDS011;65307;50.902;4.278;2022-11-20T08:01:06;4.70;;;3.42;;
76473;SDS011;65307;50.902;4.278;2022-11-20T08:03:32;5.00;;;3.50;;
76473;SDS011;65307;50.902;4.278;2022-11-20T08:05:59;4.10;;;3.17;;
76473;SDS011;65307;50.902;4.278;2022-11-20T08:08:25;4.43;;;3.30;;
76473;SDS011;65307;50.902;4.278;2022-11-20T08:10:51;5.28;;;3.88;;
76473;SDS011;65307;50.902;4.278;2022-11-20T08:13:17;3.97;;;3.22;;
76473;SDS011;65307;50.902;4.278;2022-11-20T08:16:01;5.15;;;3.40;;
76473;SDS011;65307;50.902;4.278;2022-11-20T08:18:27;5.28;;;4.13;;
76473;SDS011;65307;50.902;4.278;2022-11-20T08:20:52;4.25;;;3.35;;
76473;SDS011;65307;50.902;4.278;2022-11-20T08:23:18;4.63;;;3.85;;
76473;SDS011;65307;50.902;4.278;2022-11-20T08:25:48;4.50;;;3.33;;
76473;SDS011;65307;50.902;4.278;2022-11-20T08:28:14;5.03;;;3.65;;
76473;SDS011;65307;50.902;4.278;2022-11-20T08:30:40;4.55;;;3.70;;
76473;SDS011;65307;50.902;4.278;2022-11-20T08:33:06;4.25;;;3.50;;
76473;SDS011;65307;50.902;4.278;2022-11-20T08:35:33;4.10;;;3.42;;
76473;SDS011;65307;50.902;4.278;2022-11-20T08:38:01;4.88;;;3.97;;
76473;SDS011;65307;50.902;4.278;2022-11-20T08:40:27;5.82;;;3.67;;
76473;SDS011;65307;50.902;4.278;2022-11-20T08:42:53;4.57;;;3.53;;
76473;SDS011;65307;50.902;4.278;2022-11-20T08:45:19;6.03;;;3.60;;
76473;SDS011;65307;50.902;4.278;2022-11-20T08:47:45;4.93;;;3.60;;
76473;SDS011;65307;50.902;4.278;2022-11-20T08:50:12;5.70;;;3.92;;
76473;SDS011;65307;50.902;4.278;2022-11-20T08:52:39;4.53;;;3.38;;
76473;SDS011;65307;50.902;4.278;2022-11-20T08:55:05;5.72;;;3.95;;
76473;SDS011;65307;50.902;4.278;2022-11-20T08:57:32;4.68;;;3.63;;
76473;SDS011;65307;50.902;4.278;2022-11-20T08:59:58;5.63;;;3.88;;
76473;SDS011;65307;50.902;4.278;2022-11-20T09:02:24;5.22;;;3.97;;
76473;SDS011;65307;50.902;4.278;2022-11-20T09:04:49;4.65;;;3.70;;
76473;SDS011;65307;50.902;4.278;2022-11-20T09:07:15;7.20;;;3.65;;
76473;SDS011;65307;50.902;4.278;2022-11-20T09:09:41;5.78;;;3.72;;
76473;SDS011;65307;50.902;4.278;2022-11-20T09:12:06;5.85;;;3.40;;
76473;SDS011;65307;50.902;4.278;2022-11-20T09:14:32;4.68;;;3.80;;
76473;SDS011;65307;50.902;4.278;2022-11-20T09:16:58;4.70;;;3.35;;
76473;SDS011;65307;50.902;4.278;2022-11-20T09:19:24;4.75;;;3.38;;
76473;SDS011;65307;50.902;4.278;2022-11-20T09:21:50;4.97;;;3.53;;
76473;SDS011;65307;50.902;4.278;2022-11-20T09:24:16;5.57;;;3.75;;
76473;SDS011;65307;50.902;4.278;2022-11-20T09:26:42;4.70;;;3.47;;
76473;SDS011;65307;50.902;4.278;2022-11-20T09:29:08;5.22;;;3.30;;
76473;SDS011;65307;50.902;4.278;2022-11-20T09:31:34;6.03;;;3.72;;
76473;SDS011;65307;50.902;4.278;2022-11-20T09:33:59;5.07;;;3.67;;
76473;SDS011;65307;50.902;4.278;2022-11-20T09:36:25;5.55;;;3.90;;
76473;SDS011;65307;50.902;4.278;2022-11-20T09:38:51;4.50;;;3.35;;
76473;SDS011;65307;50.902;4.278;2022-11-20T09:41:31;4.63;;;3.30;;
76473;SDS011;65307;50.902;4.278;2022-11-20T09:47:01;3.83;;;3.35;;
76473;SDS011;65307;50.902;4.278;2022-11-20T09:52:10;5.45;;;3.60;;
76473;SDS011;65307;50.902;4.278;2022-11-20T09:54:45;4.47;;;3.55;;
76473;SDS011;65307;50.902;4.278;2022-11-20T09:57:13;5.03;;;3.53;;
76473;SDS011;65307;50.902;4.278;2022-11-20T09:59:42;4.07;;;3.13;;
76473;SDS011;65307;50.902;4.278;2022-11-20T10:04:51;4.80;;;3.33;;
76473;SDS011;65307;50.902;4.278;2022-11-20T10:10:04;4.88;;;3.42;;
76473;SDS011;65307;50.902;4.278;2022-11-20T10:17:58;5.45;;;3.50;;
76473;SDS011;65307;50.902;4.278;2022-11-20T10:20:43;6.43;;;3.67;;
76473;SDS011;65307;50.902;4.278;2022-11-20T10:29:13;4.80;;;3.38;;
76473;SDS011;65307;50.902;4.278;2022-11-20T10:31:49;4.93;;;3.22;;
76473;SDS011;65307;50.902;4.278;2022-11-20T10:34:29;4.47;;;3.33;;
76473;SDS011;65307;50.902;4.278;2022-11-20T10:37:09;5.88;;;4.07;;
76473;SDS011;65307;50.902;4.278;2022-11-20T10:42:25;5.75;;;3.40;;
76473;SDS011;65307;50.902;4.278;2022-11-20T10:47:50;4.20;;;2.95;;
76473;SDS011;65307;50.902;4.278;2022-11-20T10:50:19;4.43;;;3.20;;
76473;SDS011;65307;50.902;4.278;2022-11-20T10:55:32;4.88;;;3.40;;
76473;SDS011;65307;50.902;4.278;2022-11-20T11:00:49;3.88;;;2.88;;
76473;SDS011;65307;50.902;4.278;2022-11-20T11:03:22;4.05;;;3.40;;
76473;SDS011;65307;50.902;4.278;2022-11-20T11:08:50;3.88;;;2.95;;
76473;SDS011;65307;50.902;4.278;2022-11-20T11:11:23;4.90;;;3.25;;
76473;SDS011;65307;50.902;4.278;2022-11-20T11:13:52;4.03;;;3.00;;
76473;SDS011;65307;50.902;4.278;2022-11-20T11:16:22;4.70;;;3.10;;
76473;SDS011;65307;50.902;4.278;2022-11-20T11:18:49;4.38;;;3.17;;
76473;SDS011;65307;50.902;4.278;2022-11-20T11:21:22;4.68;;;3.50;;
76473;SDS011;65307;50.902;4.278;2022-11-20T11:23:57;4.95;;;3.55;;
76473;SDS011;65307;50.902;4.278;2022-11-20T11:26:28;5.32;;;3.40;;
76473;SDS011;65307;50.902;4.278;2022-11-20T11:28:58;4.30;;;2.97;;
76473;SDS011;65307;50.902;4.278;2022-11-20T11:31:29;3.92;;;2.95;;
76473;SDS011;65307;50.902;4.278;2022-11-20T11:34:05;5.57;;;3.42;;
76473;SDS011;65307;50.902;4.278;2022-11-20T11:36:31;3.42;;;2.90;;
76473;SDS011;65307;50.902;4.278;2022-11-20T11:38:59;4.82;;;3.15;;
76473;SDS011;65307;50.902;4.278;2022-11-20T11:41:28;5.07;;;3.42;;
76473;SDS011;65307;50.902;4.278;2022-11-20T11:43:58;4.22;;;2.90;;
76473;SDS011;65307;50.902;4.278;2022-11-20T11:47:00;3.72;;;2.83;;
76473;SDS011;65307;50.902;4.278;2022-11-20T11:49:28;4.53;;;3.00;;
76473;SDS011;65307;50.902;4.278;2022-11-20T11:54:49;4.90;;;3.00;;
76473;SDS011;65307;50.902;4.278;2022-11-20T12:00:01;4.00;;;3.15;;
76473;SDS011;65307;50.902;4.278;2022-11-20T12:05:36;3.85;;;2.80;;
76473;SDS011;65307;50.902;4.278;2022-11-20T12:11:14;3.85;;;2.72;;
76473;SDS011;65307;50.902;4.278;2022-11-20T12:13:57;5.25;;;3.25;;
76473;SDS011;65307;50.902;4.278;2022-11-20T12:16:54;4.38;;;2.90;;
76473;SDS011;65307;50.902;4.278;2022-11-20T12:19:22;3.63;;;2.65;;
76473;SDS011;65307;50.902;4.278;2022-11-20T12:24:50;4.63;;;3.05;;
76473;SDS011;65307;50.902;4.278;2022-11-20T12:30:18;3.10;;;2.40;;
76473;SDS011;65307;50.902;4.278;2022-11-20T12:47:16;4.95;;;2.58;;
76473;SDS011;65307;50.902;4.278;2022-11-20T12:49:56;2.92;;;2.53;;
76473;SDS011;65307;50.902;4.278;2022-11-20T13:00:55;2.92;;;2.33;;
76473;SDS011;65307;50.902;4.278;2022-11-20T13:03:37;3.47;;;2.53;;
76473;SDS011;65307;50.902;4.278;2022-11-20T13:06:16;3.80;;;2.50;;
76473;SDS011;65307;50.902;4.278;2022-11-20T13:08:52;3.50;;;2.38;;
76473;SDS011;65307;50.902;4.278;2022-11-20T13:19:15;3.58;;;2.78;;
76473;SDS011;65307;50.902;4.278;2022-11-20T13:21:47;3.30;;;2.47;;
76473;SDS011;65307;50.902;4.278;2022-11-20T13:26:48;3.15;;;2.33;;
76473;SDS011;65307;50.902;4.278;2022-11-20T13:29:25;4.50;;;2.30;;
76473;SDS011;65307;50.902;4.278;2022-11-20T13:32:00;3.30;;;2.13;;
76473;SDS011;65307;50.902;4.278;2022-11-20T13:34:28;3.38;;;2.40;;
76473;SDS011;65307;50.902;4.278;2022-11-20T13:36:55;4.57;;;2.58;;
76473;SDS011;65307;50.902;4.278;2022-11-20T13:40:04;3.45;;;2.08;;
76473;SDS011;65307;50.902;4.278;2022-11-20T13:44:47;2.25;;;2.03;;
76473;SDS011;65307;50.902;4.278;2022-11-20T13:47:28;3.42;;;2.22;;
76473;SDS011;65307;50.902;4.278;2022-11-20T13:49:57;3.05;;;2.05;;
76473;SDS011;65307;50.902;4.278;2022-11-20T13:52:42;3.45;;;2.38;;
76473;SDS011;65307;50.902;4.278;2022-11-20T14:00:29;3.00;;;2.25;;
76473;SDS011;65307;50.902;4.278;2022-11-20T14:03:02;3.22;;;2.20;;
76473;SDS011;65307;50.902;4.278;2022-11-20T14:05:49;2.92;;;1.90;;
76473;SDS011;65307;50.902;4.278;2022-11-20T14:08:31;3.20;;;1.70;;
76473;SDS011;65307;50.902;4.278;2022-11-20T14:11:16;2.20;;;2.00;;
76473;SDS011;65307;50.902;4.278;2022-11-20T14:13:57;2.67;;;1.92;;
76473;SDS011;65307;50.902;4.278;2022-11-20T14:16:34;2.35;;;1.77;;
76473;SDS011;65307;50.902;4.278;2022-11-20T14:21:45;2.70;;;1.98;;
76473;SDS011;65307;50.902;4.278;2022-11-20T14:24:18;2.50;;;1.70;;
76473;SDS011;65307;50.902;4.278;2022-11-20T14:26:45;2.30;;;1.73;;
76473;SDS011;65307;50.902;4.278;2022-11-20T14:29:26;2.47;;;1.88;;
76473;SDS011;65307;50.902;4.278;2022-11-20T14:31:55;2.17;;;1.90;;
76473;SDS011;65307;50.902;4.278;2022-11-20T14:34:23;3.13;;;1.90;;
76473;SDS011;65307;50.902;4.278;2022-11-20T14:36:52;2.35;;;1.70;;
76473;SDS011;65307;50.902;4.278;2022-11-20T14:39:41;2.55;;;1.55;;
76473;SDS011;65307;50.902;4.278;2022-11-20T14:42:16;2.15;;;1.50;;
76473;SDS011;65307;50.902;4.278;2022-11-20T14:45:00;2.08;;;1.58;;
76473;SDS011;65307;50.902;4.278;2022-11-20T14:47:27;2.40;;;1.70;;
76473;SDS011;65307;50.902;4.278;2022-11-20T14:49:55;2.58;;;1.77;;
76473;SDS011;65307;50.902;4.278;2022-11-20T14:52:26;2.17;;;1.92;;
76473;SDS011;65307;50.902;4.278;2022-11-20T14:54:56;2.28;;;1.80;;
76473;SDS011;65307;50.902;4.278;2022-11-20T14:57:29;2.47;;;1.90;;
76473;SDS011;65307;50.902;4.278;2022-11-20T15:00:07;2.60;;;1.85;;
76473;SDS011;65307;50.902;4.278;2022-11-20T15:02:43;2.50;;;1.77;;
76473;SDS011;65307;50.902;4.278;2022-11-20T15:05:11;1.70;;;1.50;;
76473;SDS011;65307;50.902;4.278;2022-11-20T15:07:38;2.05;;;1.55;;
76473;SDS011;65307;50.902;4.278;2022-11-20T15:10:11;2.22;;;1.75;;
76473;SDS011;65307;50.902;4.278;2022-11-20T15:12:59;1.55;;;1.42;;
76473;SDS011;65307;50.902;4.278;2022-11-20T15:15:32;2.80;;;1.75;;
76473;SDS011;65307;50.902;4.278;2022-11-20T15:18:01;1.92;;;1.42;;
76473;SDS011;65307;50.902;4.278;2022-11-20T15:20:29;1.67;;;1.50;;
76473;SDS011;65307;50.902;4.278;2022-11-20T15:22:57;1.67;;;1.50;;
76473;SDS011;65307;50.902;4.278;2022-11-20T15:25:22;1.65;;;1.50;;
76473;SDS011;65307;50.902;4.278;2022-11-20T15:27:50;1.25;;;1.15;;
76473;SDS011;65307;50.902;4.278;2022-11-20T15:30:19;1.55;;;1.30;;
76473;SDS011;65307;50.902;4.278;2022-11-20T15:32:46;1.65;;;1.30;;
76473;SDS011;65307;50.902;4.278;2022-11-20T15:35:12;1.67;;;1.48;;
76473;SDS011;65307;50.902;4.278;2022-11-20T15:37:39;2.08;;;1.60;;
76473;SDS011;65307;50.902;4.278;2022-11-20T15:40:06;2.28;;;1.83;;
76473;SDS011;65307;50.902;4.278;2022-11-20T15:42:34;1.50;;;1.38;;
76473;SDS011;65307;50.902;4.278;2022-11-20T15:45:00;1.80;;;1.50;;
76473;SDS011;65307;50.902;4.278;2022-11-20T15:47:27;1.85;;;1.48;;
76473;SDS011;65307;50.902;4.278;2022-11-20T15:49:58;2.08;;;1.50;;
76473;SDS011;65307;50.902;4.278;2022-11-20T15:52:24;1.60;;;1.38;;
76473;SDS011;65307;50.902;4.278;2022-11-20T15:54:50;1.45;;;1.35;;
76473;SDS011;65307;50.902;4.278;2022-11-20T15:57:15;1.40;;;1.30;;
76473;SDS011;65307;50.902;4.278;2022-11-20T15:59:41;1.55;;;1.45;;
76473;SDS011;65307;50.902;4.278;2022-11-20T16:02:13;1.55;;;1.30;;
76473;SDS011;65307;50.902;4.278;2022-11-20T16:04:40;1.65;;;1.40;;
76473;SDS011;65307;50.902;4.278;2022-11-20T16:07:06;1.67;;;1.30;;
76473;SDS011;65307;50.902;4.278;2022-11-20T16:09:32;1.40;;;1.20;;
76473;SDS011;65307;50.902;4.278;2022-11-20T16:11:58;1.33;;;1.20;;
76473;SDS011;65307;50.902;4.278;2022-11-20T16:14:25;1.60;;;1.13;;
76473;SDS011;65307;50.902;4.278;2022-11-20T16:17:09;1.77;;;1.23;;
76473;SDS011;65307;50.902;4.278;2022-11-20T16:19:35;1.88;;;1.30;;
76473;SDS011;65307;50.902;4.278;2022-11-20T16:22:00;1.50;;;1.10;;
76473;SDS011;65307;50.902;4.278;2022-11-20T16:24:26;1.20;;;1.10;;
76473;SDS011;65307;50.902;4.278;2022-11-20T16:26:55;1.55;;;1.38;;
76473;SDS011;65307;50.902;4.278;2022-11-20T16:29:21;2.15;;;1.45;;
76473;SDS011;65307;50.902;4.278;2022-11-20T16:31:47;1.00;;;0.90;;
76473;SDS011;65307;50.902;4.278;2022-11-20T16:34:15;1.42;;;1.20;;
76473;SDS011;65307;50.902;4.278;2022-11-20T16:36:41;1.42;;;1.00;;
76473;SDS011;65307;50.902;4.278;2022-11-20T16:39:08;1.20;;;1.10;;
76473;SDS011;65307;50.902;4.278;2022-11-20T16:41:34;1.08;;;0.90;;
76473;SDS011;65307;50.902;4.278;2022-11-20T16:44:01;1.27;;;1.10;;
76473;SDS011;65307;50.902;4.278;2022-11-20T16:46:31;1.75;;;1.10;;
76473;SDS011;65307;50.902;4.278;2022-11-20T16:49:00;1.20;;;1.10;;
76473;SDS011;65307;50.902;4.278;2022-11-20T16:51:31;1.95;;;1.40;;